createdAt,value
2023-06-11T00:00:20.287Z,3.20
2023-06-11T00:02:47.775Z,2.83
2023-06-11T00:05:16.604Z,3.10
2023-06-11T00:07:44.536Z,3.03
2023-06-11T00:10:11.583Z,2.90
2023-06-11T00:12:38.280Z,3.13
2023-06-11T00:15:05.404Z,2.87
2023-06-11T00:17:34.786Z,2.93
2023-06-11T00:20:10.321Z,3.10
2023-06-11T00:22:38.500Z,3.23
2023-06-11T00:25:08.553Z,2.90
2023-06-11T00:27:38.812Z,3.30
2023-06-11T00:30:07.183Z,3.10
2023-06-11T00:32:36.091Z,3.23
2023-06-11T00:35:08.627Z,3.07
2023-06-11T00:37:38.493Z,3.40
2023-06-11T00:40:05.793Z,3.17
2023-06-11T00:42:35.075Z,3.13
2023-06-11T00:45:04.611Z,3.33
2023-06-11T00:47:32.162Z,2.90
2023-06-11T00:49:59.955Z,3.30
2023-06-11T00:52:27.430Z,3.03
2023-06-11T00:55:06.992Z,3.07
2023-06-11T00:57:37.904Z,3.20
2023-06-11T01:00:08.913Z,3.00
2023-06-11T01:02:48.544Z,3.07
2023-06-11T01:07:52.573Z,3.03
2023-06-11T01:10:20.099Z,2.93
2023-06-11T01:12:47.092Z,2.90
2023-06-11T01:15:16.583Z,3.10
2023-06-11T01:17:51.414Z,3.00
2023-06-11T01:20:26.635Z,2.90
2023-06-11T01:22:58.982Z,2.87
2023-06-11T01:25:51.457Z,3.43
2023-06-11T01:28:28.116Z,3.33
2023-06-11T01:31:00.631Z,3.00
2023-06-11T01:33:29.818Z,3.17
2023-06-11T01:36:01.738Z,3.20
2023-06-11T01:38:31.819Z,3.60
2023-06-11T01:41:00.068Z,3.20
2023-06-11T01:43:29.689Z,3.23
2023-06-11T01:46:01.889Z,3.10
2023-06-11T01:48:31.333Z,3.23
2023-06-11T01:50:58.128Z,3.20
2023-06-11T01:53:25.572Z,3.27
2023-06-11T01:55:52.382Z,3.30
2023-06-11T01:58:19.600Z,3.37
2023-06-11T02:00:48.969Z,3.20
2023-06-11T02:03:16.920Z,3.20
2023-06-11T02:05:44.685Z,2.90
2023-06-11T02:08:18.516Z,3.33
2023-06-11T02:10:48.030Z,3.20
2023-06-11T02:13:17.220Z,2.90
2023-06-11T02:15:46.121Z,2.93
2023-06-11T02:18:13.098Z,3.20
2023-06-11T02:20:44.413Z,3.57
2023-06-11T02:23:13.373Z,3.40
2023-06-11T02:25:40.075Z,3.33
2023-06-11T02:28:09.716Z,3.50
2023-06-11T02:30:36.660Z,3.13
2023-06-11T02:33:03.436Z,3.00
2023-06-11T02:35:30.416Z,3.33
2023-06-11T02:37:59.316Z,2.93
2023-06-11T02:40:26.074Z,3.00
2023-06-11T02:42:52.899Z,2.93
2023-06-11T02:45:21.935Z,2.93
2023-06-11T02:47:50.870Z,3.30
2023-06-11T02:50:20.154Z,3.30
2023-06-11T02:52:47.002Z,3.30
2023-06-11T02:55:16.030Z,3.63
2023-06-11T02:57:45.367Z,3.27
2023-06-11T03:00:12.770Z,3.67
2023-06-11T03:02:42.741Z,3.50
2023-06-11T03:05:10.020Z,3.38
2023-06-11T03:07:36.931Z,3.33
2023-06-11T03:10:03.984Z,3.23
2023-06-11T03:12:30.964Z,3.97
2023-06-11T03:14:57.698Z,3.33
2023-06-11T03:17:24.450Z,3.43
2023-06-11T03:19:51.265Z,3.37
2023-06-11T03:22:18.069Z,3.50
2023-06-11T03:24:44.773Z,3.27
2023-06-11T03:27:13.978Z,3.57
2023-06-11T03:29:40.958Z,3.60
2023-06-11T03:32:13.135Z,3.10
2023-06-11T03:34:43.957Z,3.50
2023-06-11T03:37:13.210Z,3.40
2023-06-11T03:39:40.001Z,3.17
2023-06-11T03:42:07.134Z,3.40
2023-06-11T03:44:33.842Z,3.30
2023-06-11T03:47:00.702Z,4.03
2023-06-11T03:49:29.849Z,3.43
2023-06-11T03:51:59.285Z,3.72
2023-06-11T03:54:26.120Z,3.47
2023-06-11T03:56:57.349Z,3.30
2023-06-11T03:59:24.075Z,3.73
2023-06-11T04:01:53.791Z,3.60
2023-06-11T04:04:22.971Z,3.20
2023-06-11T04:06:49.726Z,3.57
2023-06-11T04:09:16.432Z,3.63
2023-06-11T04:11:45.522Z,3.30
2023-06-11T04:14:12.317Z,3.30
2023-06-11T04:16:39.144Z,3.23
2023-06-11T04:19:06.073Z,3.13
2023-06-11T04:21:32.890Z,3.53
2023-06-11T04:23:59.631Z,3.60
2023-06-11T04:26:26.655Z,3.30
2023-06-11T04:28:54.053Z,3.47
2023-06-11T04:31:27.714Z,3.67
2023-06-11T04:33:57.046Z,3.60
2023-06-11T04:36:28.906Z,3.53
2023-06-11T04:38:55.848Z,3.93
2023-06-11T04:41:27.584Z,3.13
2023-06-11T04:43:56.932Z,3.60
2023-06-11T04:46:26.895Z,3.33
2023-06-11T04:48:57.627Z,3.80
2023-06-11T04:51:29.595Z,3.57
2023-06-11T04:53:59.150Z,3.50
2023-06-11T04:56:26.513Z,3.77
2023-06-11T04:58:53.224Z,3.80
2023-06-11T05:01:21.419Z,4.05
2023-06-11T05:03:49.324Z,3.53
2023-06-11T05:06:22.636Z,3.80
2023-06-11T05:08:49.510Z,4.00
2023-06-11T05:11:16.302Z,3.50
2023-06-11T05:13:47.775Z,3.53
2023-06-11T05:16:17.159Z,3.63
2023-06-11T05:18:43.884Z,4.17
2023-06-11T05:21:10.927Z,3.90
2023-06-11T05:23:40.511Z,4.13
2023-06-11T05:26:20.120Z,4.13
2023-06-11T05:28:51.309Z,4.05
2023-06-11T05:31:18.969Z,4.20
2023-06-11T05:33:45.687Z,3.73
2023-06-11T05:36:14.670Z,3.87
2023-06-11T05:38:44.420Z,4.30
2023-06-11T05:41:13.294Z,4.40
2023-06-11T05:43:42.185Z,4.10
2023-06-11T05:46:08.943Z,4.00
2023-06-11T05:48:38.186Z,4.20
2023-06-11T05:51:04.968Z,4.10
2023-06-11T05:53:33.872Z,3.83
2023-06-11T05:56:04.818Z,4.20
2023-06-11T05:58:33.212Z,3.90
2023-06-11T06:01:04.722Z,4.20
2023-06-11T06:03:35.310Z,4.03
2023-06-11T06:06:02.780Z,4.27
2023-06-11T06:08:30.941Z,3.70
2023-06-11T06:11:00.213Z,4.00
2023-06-11T06:13:27.779Z,3.87
2023-06-11T06:15:54.621Z,4.33
2023-06-11T06:18:22.263Z,3.80
2023-06-11T06:20:49.130Z,3.60
2023-06-11T06:23:15.935Z,3.60
2023-06-11T06:25:43.197Z,4.13
2023-06-11T06:28:12.159Z,3.80
2023-06-11T06:30:42.143Z,4.30
2023-06-11T06:33:08.956Z,3.77
2023-06-11T06:35:36.371Z,3.73
2023-06-11T06:38:03.151Z,3.77
2023-06-11T06:40:32.354Z,4.07
2023-06-11T06:42:59.148Z,3.50
2023-06-11T06:45:25.902Z,3.70
2023-06-11T06:47:52.652Z,4.50
2023-06-11T06:50:19.613Z,3.80
2023-06-11T06:52:46.433Z,3.80
2023-06-11T06:55:15.360Z,4.17
2023-06-11T06:57:42.516Z,4.20
2023-06-11T07:00:10.182Z,4.20
2023-06-11T07:02:37.194Z,4.40
2023-06-11T07:05:04.524Z,3.57
2023-06-11T07:07:33.430Z,4.10
2023-06-11T07:10:00.227Z,4.20
2023-06-11T07:12:27.067Z,3.90
2023-06-11T07:14:53.815Z,3.90
2023-06-11T07:17:25.156Z,4.07
2023-06-11T07:19:52.023Z,3.93
2023-06-11T07:22:21.046Z,3.77
2023-06-11T07:24:52.505Z,4.00
2023-06-11T07:27:19.388Z,3.97
2023-06-11T07:29:46.655Z,3.40
2023-06-11T07:32:16.137Z,3.93
2023-06-11T07:34:45.513Z,3.90
2023-06-11T07:37:12.698Z,3.57
2023-06-11T07:39:41.911Z,4.00
2023-06-11T07:42:13.457Z,3.93
2023-06-11T07:44:40.261Z,3.63
2023-06-11T07:47:07.250Z,3.50
2023-06-11T07:49:36.703Z,3.70
2023-06-11T07:52:03.952Z,4.50
2023-06-11T07:54:32.891Z,4.03
2023-06-11T07:57:00.206Z,4.13
2023-06-11T07:59:27.331Z,4.23
2023-06-11T08:01:56.722Z,3.27
2023-06-11T08:04:27.003Z,3.50
2023-06-11T08:06:54.545Z,4.07
2023-06-11T08:09:21.574Z,3.70
2023-06-11T08:11:50.705Z,3.77
2023-06-11T08:14:20.153Z,3.13
2023-06-11T08:16:47.102Z,3.60
2023-06-11T08:19:14.989Z,3.60
2023-06-11T08:21:42.308Z,3.90
2023-06-11T08:24:10.619Z,3.60
2023-06-11T08:26:42.446Z,3.93
2023-06-11T08:29:09.333Z,3.90
2023-06-11T08:31:36.239Z,3.30
2023-06-11T08:34:05.529Z,3.50
2023-06-11T08:36:35.105Z,4.20
2023-06-11T08:39:05.364Z,3.90
2023-06-11T08:41:34.544Z,3.80
2023-06-11T08:44:01.326Z,3.90
2023-06-11T08:46:31.268Z,3.80
2023-06-11T08:49:03.819Z,3.63
2023-06-11T08:51:36.517Z,3.60
2023-06-11T08:54:04.001Z,3.97
2023-06-11T08:56:33.138Z,3.60
2023-06-11T08:59:01.695Z,3.50
2023-06-11T09:01:29.903Z,3.40
2023-06-11T09:03:56.790Z,3.70
2023-06-11T09:06:23.578Z,3.37
2023-06-11T09:09:01.565Z,3.77
2023-06-11T09:11:37.581Z,3.33
2023-06-11T09:14:06.335Z,3.37
2023-06-11T09:16:49.683Z,3.90
2023-06-11T09:19:17.390Z,3.60
2023-06-11T09:21:57.606Z,3.10
2023-06-11T09:24:26.018Z,3.57
2023-06-11T09:26:57.873Z,3.40
2023-06-11T09:29:26.520Z,3.50
2023-06-11T09:32:27.754Z,3.40
2023-06-11T09:34:59.043Z,3.10
2023-06-11T09:37:25.943Z,3.83
2023-06-11T09:39:52.920Z,3.07
2023-06-11T09:42:29.072Z,3.00
2023-06-11T09:45:00.298Z,3.37
2023-06-11T09:47:32.606Z,3.33
2023-06-11T09:50:03.281Z,3.67
2023-06-11T09:52:33.045Z,3.70
2023-06-11T09:55:03.029Z,3.57
2023-06-11T09:57:32.935Z,3.27
2023-06-11T10:00:00.724Z,3.10
2023-06-11T10:02:27.868Z,2.87
2023-06-11T10:04:55.157Z,3.30
2023-06-11T10:07:27.637Z,3.30
2023-06-11T10:09:59.628Z,3.40
2023-06-11T10:12:26.441Z,3.53
2023-06-11T10:14:56.202Z,3.17
2023-06-11T10:17:23.722Z,3.30
2023-06-11T10:19:52.735Z,3.00
2023-06-11T10:22:33.174Z,3.30
2023-06-11T10:25:01.488Z,2.90
2023-06-11T10:27:43.663Z,3.20
2023-06-11T10:30:11.375Z,3.17
2023-06-11T10:32:50.831Z,3.20
2023-06-11T10:35:37.605Z,3.00
2023-06-11T10:38:06.420Z,3.20
2023-06-11T10:40:38.272Z,3.27
2023-06-11T10:43:18.125Z,3.27
2023-06-11T10:45:49.821Z,3.10
2023-06-11T10:48:31.212Z,3.43
2023-06-11T10:51:13.810Z,3.20
2023-06-11T10:53:43.089Z,3.77
2023-06-11T10:56:12.932Z,2.87
2023-06-11T10:58:49.507Z,3.27
2023-06-11T11:01:19.367Z,3.23
2023-06-11T11:03:47.515Z,3.13
2023-06-11T11:06:26.286Z,2.93
2023-06-11T11:08:58.869Z,3.47
2023-06-11T11:11:27.685Z,3.20
2023-06-11T11:14:02.345Z,3.00
2023-06-11T11:16:32.165Z,3.50
2023-06-11T11:18:59.022Z,3.00
2023-06-11T11:21:32.043Z,3.37
2023-06-11T11:24:02.498Z,3.10
2023-06-11T11:26:29.301Z,2.93
2023-06-11T11:28:58.252Z,2.83
2023-06-11T11:31:25.449Z,3.30
2023-06-11T11:33:54.465Z,3.10
2023-06-11T11:36:23.467Z,3.03
2023-06-11T11:38:51.879Z,3.10
2023-06-11T11:41:23.640Z,3.17
2023-06-11T11:43:53.349Z,3.20
2023-06-11T11:46:22.071Z,2.80
2023-06-11T11:48:56.652Z,2.90
2023-06-11T11:51:30.773Z,2.87
2023-06-11T11:54:00.784Z,3.50
2023-06-11T11:56:36.300Z,2.60
2023-06-11T11:59:03.129Z,2.73
2023-06-11T12:01:37.793Z,3.00
2023-06-11T12:04:07.598Z,2.90
2023-06-11T12:06:39.101Z,2.73
2023-06-11T12:09:06.700Z,2.93
2023-06-11T12:11:33.513Z,3.07
2023-06-11T12:14:00.464Z,2.90
2023-06-11T12:16:27.265Z,3.43
2023-06-11T12:19:14.531Z,3.20
2023-06-11T12:21:47.578Z,3.00
2023-06-11T12:24:19.268Z,3.20
2023-06-11T12:26:54.914Z,3.20
2023-06-11T12:29:23.877Z,3.30
2023-06-11T12:31:50.826Z,3.10
2023-06-11T12:34:17.644Z,3.10
2023-06-11T12:36:45.376Z,2.83
2023-06-11T12:39:12.350Z,3.40
2023-06-11T12:41:39.247Z,3.07
2023-06-11T12:44:08.107Z,3.13
2023-06-11T12:46:37.784Z,2.93
2023-06-11T12:49:07.122Z,3.17
2023-06-11T12:51:33.873Z,2.80
2023-06-11T12:54:03.275Z,3.13
2023-06-11T12:56:30.027Z,3.23
2023-06-11T12:58:56.830Z,3.10
2023-06-11T13:01:23.572Z,2.90
2023-06-11T13:03:53.067Z,2.80
2023-06-11T13:06:19.821Z,3.30
2023-06-11T13:08:46.593Z,2.70
2023-06-11T13:11:13.506Z,3.13
2023-06-11T13:13:40.310Z,3.00
2023-06-11T13:16:09.290Z,3.27
2023-06-11T13:18:38.309Z,3.07
2023-06-11T13:21:06.617Z,3.00
2023-06-11T13:23:33.731Z,2.93
2023-06-11T13:26:01.918Z,2.90
2023-06-11T13:28:31.315Z,2.93
2023-06-11T13:30:59.639Z,2.70
2023-06-11T13:33:26.480Z,2.93
2023-06-11T13:35:53.228Z,2.83
2023-06-11T13:38:24.894Z,3.03
2023-06-11T13:40:53.027Z,2.97
2023-06-11T13:43:19.748Z,2.90
2023-06-11T13:45:46.555Z,2.90
2023-06-11T13:48:14.594Z,3.20
2023-06-11T13:50:45.325Z,3.57
2023-06-11T13:53:14.916Z,3.10
2023-06-11T13:55:42.365Z,2.70
2023-06-11T13:58:12.164Z,3.20
2023-06-11T14:00:43.987Z,2.80
2023-06-11T14:03:11.204Z,2.53
2023-06-11T14:05:40.751Z,2.70
2023-06-11T14:08:08.222Z,2.93
2023-06-11T14:10:34.978Z,2.97
2023-06-11T14:13:03.838Z,2.93
2023-06-11T14:15:30.621Z,2.87
2023-06-11T14:17:57.770Z,2.90
2023-06-11T14:20:27.061Z,2.90
2023-06-11T14:22:56.338Z,3.17
2023-06-11T14:25:23.147Z,2.87
2023-06-11T14:27:49.880Z,3.17
2023-06-11T14:30:20.287Z,3.10
2023-06-11T14:32:52.015Z,3.20
2023-06-11T14:35:21.207Z,3.00
2023-06-11T14:37:47.928Z,3.20
2023-06-11T14:40:17.086Z,3.20
2023-06-11T14:42:44.425Z,3.63
2023-06-11T14:45:13.857Z,3.67
2023-06-11T14:47:48.904Z,2.97
2023-06-11T14:50:18.244Z,3.10
2023-06-11T14:52:44.939Z,3.10
2023-06-11T14:55:16.375Z,3.73
2023-06-11T14:57:43.166Z,3.53
2023-06-11T15:00:10.655Z,3.20
2023-06-11T15:02:39.945Z,2.80
2023-06-11T15:05:09.798Z,3.20
2023-06-11T15:07:36.764Z,3.67
2023-06-11T15:10:05.561Z,3.20
2023-06-11T15:12:32.916Z,3.53
2023-06-11T15:15:01.926Z,3.13
2023-06-11T15:17:37.137Z,2.80
2023-06-11T15:20:06.062Z,3.90
2023-06-11T15:22:38.502Z,3.33
2023-06-11T15:25:10.484Z,3.40
2023-06-11T15:27:40.919Z,3.20
2023-06-11T15:30:13.336Z,3.10
2023-06-11T15:32:40.311Z,3.40
2023-06-11T15:35:07.699Z,2.70
2023-06-11T15:37:34.480Z,3.00
2023-06-11T15:40:03.850Z,3.13
2023-06-11T15:42:30.577Z,3.43
2023-06-11T15:45:01.688Z,3.13
2023-06-11T15:47:31.112Z,2.93
2023-06-11T15:49:58.068Z,2.83
2023-06-11T15:52:24.771Z,3.63
2023-06-11T15:54:51.488Z,2.67
2023-06-11T15:57:20.557Z,3.17
2023-06-11T15:59:47.317Z,3.47
2023-06-11T16:02:17.127Z,3.27
2023-06-11T16:04:45.772Z,3.30
2023-06-11T16:07:14.357Z,3.60
2023-06-11T16:09:46.344Z,4.17
2023-06-11T16:12:13.047Z,3.40
2023-06-11T16:14:39.905Z,3.43
2023-06-11T16:17:11.360Z,3.30
2023-06-11T16:19:38.211Z,3.67
2023-06-11T16:22:05.925Z,3.27
2023-06-11T16:24:37.123Z,4.07
2023-06-11T16:27:06.716Z,3.37
2023-06-11T16:29:33.588Z,3.90
2023-06-11T16:32:00.464Z,3.50
2023-06-11T16:34:29.908Z,3.47
2023-06-11T16:36:59.092Z,3.17
2023-06-11T16:39:28.980Z,3.73
2023-06-11T16:41:56.696Z,3.43
2023-06-11T16:44:23.722Z,3.43
2023-06-11T16:46:50.839Z,3.27
2023-06-11T16:49:20.803Z,3.50
2023-06-11T16:51:52.037Z,3.20
2023-06-11T16:54:21.213Z,2.97
2023-06-11T16:56:48.037Z,2.73
2023-06-11T16:59:17.234Z,3.17
2023-06-11T17:01:44.080Z,3.03
2023-06-11T17:04:10.892Z,3.60
2023-06-11T17:06:38.013Z,3.00
2023-06-11T17:09:04.877Z,3.10
2023-06-11T17:11:31.591Z,3.37
2023-06-11T17:13:59.411Z,3.10
2023-06-11T17:16:26.195Z,3.20
2023-06-11T17:18:53.446Z,3.23
2023-06-11T17:21:22.787Z,3.33
2023-06-11T17:23:50.049Z,3.47
2023-06-11T17:26:17.843Z,3.60
2023-06-11T17:28:46.867Z,2.90
2023-06-11T17:31:14.100Z,3.33
2023-06-11T17:33:40.994Z,3.40
2023-06-11T17:36:09.217Z,3.50
2023-06-11T17:38:36.288Z,3.17
2023-06-11T17:41:03.355Z,3.10
2023-06-11T17:43:33.402Z,3.43
2023-06-11T17:46:03.029Z,3.20
2023-06-11T17:48:32.144Z,3.57
2023-06-11T17:50:59.291Z,3.40
2023-06-11T17:53:26.211Z,3.27
2023-06-11T17:55:52.970Z,3.30
2023-06-11T17:58:24.338Z,3.40
2023-06-11T18:00:51.737Z,3.43
2023-06-11T18:03:18.441Z,3.33
2023-06-11T18:05:47.695Z,3.50
2023-06-11T18:08:14.870Z,3.33
2023-06-11T18:10:41.654Z,3.70
2023-06-11T18:13:08.905Z,3.53
2023-06-11T18:15:37.028Z,3.63
2023-06-11T18:18:08.201Z,4.13
2023-06-11T18:20:34.959Z,3.90
2023-06-11T18:23:01.746Z,3.43
2023-06-11T18:25:28.751Z,3.70
2023-06-11T18:28:00.048Z,3.00
2023-06-11T18:30:29.021Z,3.67
2023-06-11T18:32:56.160Z,3.50
2023-06-11T18:35:22.993Z,3.47
2023-06-11T18:37:50.234Z,3.57
2023-06-11T18:40:17.092Z,3.63
2023-06-11T18:42:46.053Z,3.57
2023-06-11T18:45:15.065Z,3.60
2023-06-11T18:47:43.909Z,3.90
2023-06-11T18:50:11.984Z,3.50
2023-06-11T18:52:39.519Z,3.60
2023-06-11T18:55:06.908Z,3.47
2023-06-11T18:57:33.825Z,3.63
2023-06-11T19:00:03.532Z,3.70
2023-06-11T19:02:32.470Z,3.87
2023-06-11T19:04:59.736Z,3.80
2023-06-11T19:07:26.831Z,4.10
2023-06-11T19:09:56.473Z,3.90
2023-06-11T19:12:23.243Z,3.83
2023-06-11T19:14:50.538Z,4.20
2023-06-11T19:17:21.817Z,3.90
2023-06-11T19:19:49.108Z,4.50
2023-06-11T19:22:16.271Z,4.07
2023-06-11T19:24:48.292Z,4.47
2023-06-11T19:27:15.490Z,4.00
2023-06-11T19:29:44.697Z,3.70
2023-06-11T19:32:14.141Z,4.03
2023-06-11T19:34:43.421Z,4.20
2023-06-11T19:37:10.417Z,4.57
2023-06-11T19:39:41.960Z,4.77
2023-06-11T19:42:11.246Z,4.20
2023-06-11T19:44:38.550Z,4.37
2023-06-11T19:47:09.129Z,4.43
2023-06-11T19:49:38.553Z,4.30
2023-06-11T19:52:05.700Z,4.28
2023-06-11T19:54:49.838Z,4.70
2023-06-11T19:57:19.071Z,3.90
2023-06-11T19:59:45.946Z,4.10
2023-06-11T20:02:15.676Z,4.40
2023-06-11T20:04:42.594Z,4.00
2023-06-11T20:07:09.524Z,3.70
2023-06-11T20:09:36.447Z,3.97
2023-06-11T20:12:08.523Z,3.87
2023-06-11T20:14:38.685Z,3.97
2023-06-11T20:17:06.183Z,3.73
2023-06-11T20:19:36.619Z,3.83
2023-06-11T20:22:05.087Z,3.90
2023-06-11T20:24:32.332Z,3.83
2023-06-11T20:26:59.230Z,4.17
2023-06-11T20:29:26.650Z,4.60
2023-06-11T20:31:54.270Z,3.73
2023-06-11T20:34:20.998Z,4.50
2023-06-11T20:36:50.528Z,4.07
2023-06-11T20:39:17.297Z,4.10
2023-06-11T20:41:44.079Z,3.93
2023-06-11T20:44:11.225Z,3.93
2023-06-11T20:46:38.200Z,3.93
2023-06-11T20:49:05.150Z,4.10
2023-06-11T20:51:34.112Z,3.77
2023-06-11T20:54:03.380Z,3.70
2023-06-11T20:56:30.122Z,3.60
2023-06-11T20:59:01.464Z,4.23
2023-06-11T21:01:28.281Z,4.20
2023-06-11T21:03:55.078Z,4.07
2023-06-11T21:06:21.886Z,4.27
2023-06-11T21:08:51.228Z,3.97
2023-06-11T21:11:17.920Z,3.70
2023-06-11T21:13:44.744Z,4.00
2023-06-11T21:16:11.491Z,4.20
2023-06-11T21:18:38.251Z,4.10
2023-06-11T21:21:09.358Z,4.00
2023-06-11T21:23:36.201Z,3.77
2023-06-11T21:26:02.994Z,4.33
2023-06-11T21:28:33.659Z,3.70
2023-06-11T21:31:02.391Z,3.87
2023-06-11T21:33:29.163Z,3.63
2023-06-11T21:35:55.845Z,3.57
2023-06-11T21:38:22.648Z,4.00
2023-06-11T21:40:51.661Z,4.00
2023-06-11T21:43:23.139Z,4.07
2023-06-11T21:45:50.490Z,3.70
2023-06-11T21:48:17.723Z,3.80
2023-06-11T21:50:47.048Z,3.40
2023-06-11T21:53:18.745Z,3.70
2023-06-11T21:55:45.720Z,3.93
2023-06-11T21:58:14.919Z,3.87
2023-06-11T22:00:41.853Z,3.80
2023-06-11T22:03:11.424Z,4.20
2023-06-11T22:05:38.176Z,3.40
2023-06-11T22:08:06.903Z,3.50
2023-06-11T22:10:33.688Z,3.60
2023-06-11T22:13:01.516Z,3.67
2023-06-11T22:15:28.296Z,3.70
2023-06-11T22:17:55.433Z,3.70
2023-06-11T22:20:26.404Z,4.10
2023-06-11T22:22:53.353Z,4.20
2023-06-11T22:25:24.276Z,3.90
2023-06-11T22:27:54.605Z,3.90
2023-06-11T22:30:22.188Z,3.90
2023-06-11T22:32:49.003Z,3.70
2023-06-11T22:35:18.422Z,4.33
2023-06-11T22:37:45.524Z,3.50
2023-06-11T22:40:12.862Z,3.63
2023-06-11T22:42:40.113Z,3.97
2023-06-11T22:45:07.419Z,4.00
2023-06-11T22:47:36.326Z,3.83
2023-06-11T22:50:08.517Z,3.90
2023-06-11T22:52:41.355Z,4.00
2023-06-11T22:55:10.885Z,4.00
2023-06-11T22:57:42.160Z,4.10
2023-06-11T23:00:11.490Z,3.73
2023-06-11T23:02:40.775Z,3.87
2023-06-11T23:05:08.815Z,4.00
2023-06-11T23:07:38.866Z,3.63
2023-06-11T23:10:12.197Z,4.30
2023-06-11T23:12:39.176Z,3.77
2023-06-11T23:15:09.172Z,3.77
2023-06-11T23:17:37.393Z,3.63
2023-06-11T23:20:09.422Z,4.10
2023-06-11T23:22:37.997Z,4.10
2023-06-11T23:25:05.852Z,4.07
2023-06-11T23:27:34.825Z,4.07
2023-06-11T23:30:02.653Z,4.00
2023-06-11T23:32:34.169Z,3.50
2023-06-11T23:35:04.394Z,3.83
2023-06-11T23:37:34.860Z,4.57
2023-06-11T23:40:05.461Z,3.90
2023-06-11T23:42:34.316Z,3.67
2023-06-11T23:45:01.335Z,3.83
2023-06-11T23:47:32.479Z,4.10
2023-06-11T23:49:59.694Z,4.30
2023-06-11T23:52:29.040Z,4.10
2023-06-11T23:54:56.449Z,4.47
2023-06-11T23:57:28.837Z,3.97
2023-06-11T23:59:58.495Z,4.20
